createdAt,value
2022-11-29T00:02:56.220Z,6.15
2022-11-29T00:08:00.345Z,6.20
2022-11-29T00:13:02.986Z,5.90
2022-11-29T00:18:06.509Z,5.85
2022-11-29T00:23:10.567Z,6.18
2022-11-29T00:28:13.210Z,5.80
2022-11-29T00:33:16.092Z,5.95
2022-11-29T00:38:20.159Z,5.85
2022-11-29T00:43:22.830Z,5.90
2022-11-29T00:48:25.665Z,5.45
2022-11-29T00:53:29.681Z,5.40
2022-11-29T00:58:32.739Z,5.45
2022-11-29T01:03:35.491Z,5.53
2022-11-29T01:08:39.612Z,5.55
2022-11-29T01:13:43.058Z,5.25
2022-11-29T01:18:45.738Z,5.80
2022-11-29T01:23:50.797Z,5.63
2022-11-29T01:28:55.550Z,5.50
2022-11-29T01:34:00.085Z,5.20
2022-11-29T01:39:05.739Z,5.38
2022-11-29T01:44:47.044Z,5.00
2022-11-29T01:49:51.216Z,5.30
2022-11-29T01:54:57.711Z,4.82
2022-11-29T02:00:07.390Z,5.28
2022-11-29T02:05:16.730Z,5.03
2022-11-29T02:10:22.073Z,5.20
2022-11-29T02:15:34.690Z,5.13
2022-11-29T02:20:55.234Z,4.78
2022-11-29T02:26:07.421Z,5.32
2022-11-29T02:31:54.484Z,4.68
2022-11-29T02:37:11.497Z,5.00
2022-11-29T02:42:55.776Z,4.90
2022-11-29T02:48:09.258Z,5.10
2022-11-29T02:53:16.894Z,5.13
2022-11-29T02:58:24.595Z,4.93
2022-11-29T03:03:32.392Z,5.10
2022-11-29T03:08:41.974Z,5.07
2022-11-29T03:13:52.768Z,5.25
2022-11-29T03:19:05.343Z,5.07
2022-11-29T03:24:12.779Z,5.28
2022-11-29T03:29:22.598Z,4.45
2022-11-29T03:34:36.974Z,5.22
2022-11-29T03:39:48.671Z,5.30
2022-11-29T03:44:57.411Z,4.32
2022-11-29T03:50:04.941Z,5.13
2022-11-29T03:55:24.204Z,4.70
2022-11-29T04:00:29.807Z,5.13
2022-11-29T04:05:56.898Z,5.15
2022-11-29T04:11:24.249Z,4.88
2022-11-29T04:16:58.573Z,4.75
2022-11-29T04:22:13.658Z,5.10
2022-11-29T04:27:37.877Z,4.93
2022-11-29T04:33:28.737Z,4.93
2022-11-29T04:38:59.859Z,4.97
2022-11-29T04:44:16.556Z,4.82
2022-11-29T04:49:30.035Z,4.60
2022-11-29T04:54:37.702Z,4.82
2022-11-29T04:59:45.078Z,4.57
2022-11-29T05:04:52.491Z,4.75
2022-11-29T05:09:59.889Z,4.68
2022-11-29T05:15:36.989Z,4.82
2022-11-29T05:20:44.306Z,4.80
2022-11-29T05:25:51.801Z,5.03
2022-11-29T05:31:17.435Z,4.45
2022-11-29T05:36:25.920Z,4.55
2022-11-29T05:41:41.045Z,4.93
2022-11-29T05:46:50.980Z,4.82
2022-11-29T05:51:59.136Z,4.40
2022-11-29T05:57:11.770Z,4.85
2022-11-29T06:02:29.058Z,4.75
2022-11-29T06:07:38.648Z,4.63
2022-11-29T06:12:43.690Z,4.80
2022-11-29T06:17:58.053Z,5.00
2022-11-29T06:23:18.482Z,4.78
2022-11-29T06:28:33.250Z,4.80
2022-11-29T06:33:44.418Z,4.80
2022-11-29T06:38:47.464Z,4.60
2022-11-29T06:43:51.041Z,4.60
2022-11-29T06:49:02.361Z,5.07
2022-11-29T06:54:15.671Z,5.22
2022-11-29T06:59:31.704Z,6.68
2022-11-29T07:04:57.532Z,6.00
2022-11-29T07:10:00.515Z,5.15
2022-11-29T07:15:03.810Z,5.55
2022-11-29T07:20:13.775Z,5.60
2022-11-29T07:25:26.347Z,5.68
2022-11-29T07:30:35.648Z,5.47
2022-11-29T07:35:46.105Z,5.60
2022-11-29T07:40:53.235Z,5.72
2022-11-29T07:45:56.974Z,5.35
2022-11-29T07:51:01.861Z,5.88
2022-11-29T07:56:04.616Z,5.30
2022-11-29T08:01:07.639Z,5.20
2022-11-29T08:06:11.773Z,5.75
2022-11-29T08:11:15.853Z,5.05
2022-11-29T08:16:18.943Z,5.80
2022-11-29T08:21:23.013Z,5.80
2022-11-29T08:26:31.264Z,5.50
2022-11-29T08:31:34.410Z,5.00
2022-11-29T08:36:38.861Z,5.38
2022-11-29T08:41:41.506Z,5.40
2022-11-29T08:47:01.906Z,5.53
2022-11-29T08:52:24.073Z,5.32
2022-11-29T08:57:42.068Z,5.20
2022-11-29T09:02:44.750Z,5.30
2022-11-29T09:07:48.887Z,5.35
2022-11-29T09:12:51.618Z,5.32
2022-11-29T09:17:54.271Z,5.22
2022-11-29T09:22:58.883Z,5.43
2022-11-29T09:28:02.976Z,4.95
2022-11-29T09:33:05.658Z,5.65
2022-11-29T09:38:11.822Z,5.10
2022-11-29T09:43:21.040Z,4.85
2022-11-29T09:48:42.689Z,5.03
2022-11-29T09:53:59.351Z,5.55
2022-11-29T09:59:04.743Z,5.20
2022-11-29T10:04:11.963Z,5.25
2022-11-29T10:09:18.475Z,4.95
2022-11-29T10:14:27.735Z,5.38
2022-11-29T10:19:33.605Z,5.18
2022-11-29T10:24:39.262Z,4.88
2022-11-29T10:29:41.950Z,5.78
2022-11-29T10:34:44.889Z,5.25
2022-11-29T10:39:51.296Z,5.38
2022-11-29T10:44:53.962Z,5.03
2022-11-29T10:49:56.803Z,5.20
2022-11-29T10:55:01.086Z,5.45
2022-11-29T11:00:07.782Z,5.20
2022-11-29T11:05:18.371Z,5.03
2022-11-29T11:10:26.362Z,4.95
2022-11-29T11:15:30.740Z,4.95
2022-11-29T11:20:34.677Z,4.97
2022-11-29T11:25:39.693Z,4.80
2022-11-29T11:30:50.774Z,4.95
2022-11-29T11:36:08.024Z,5.00
2022-11-29T11:41:21.861Z,5.00
2022-11-29T11:46:24.930Z,5.22
2022-11-29T11:51:28.873Z,5.20
2022-11-29T11:56:36.601Z,4.80
2022-11-29T12:01:40.097Z,5.25
2022-11-29T12:06:50.957Z,5.63
2022-11-29T12:12:01.419Z,5.65
2022-11-29T12:17:19.631Z,5.20
2022-11-29T12:22:25.747Z,5.38
2022-11-29T12:27:30.572Z,5.32
2022-11-29T12:32:46.786Z,4.95
2022-11-29T12:37:52.993Z,5.13
2022-11-29T12:43:02.240Z,5.40
2022-11-29T12:48:14.808Z,5.10
2022-11-29T12:53:27.802Z,4.72
2022-11-29T12:58:41.354Z,5.07
2022-11-29T13:03:53.706Z,5.03
2022-11-29T13:09:04.957Z,4.78
2022-11-29T13:14:41.472Z,4.90
2022-11-29T13:19:39.457Z,4.85
2022-11-29T13:24:45.461Z,5.10
2022-11-29T13:29:50.169Z,4.82
2022-11-29T13:34:53.423Z,5.07
2022-11-29T13:40:00.490Z,5.00
2022-11-29T13:45:10.987Z,4.90
2022-11-29T13:50:37.255Z,4.90
2022-11-29T13:55:45.369Z,5.30
2022-11-29T14:00:52.003Z,5.10
2022-11-29T14:05:55.794Z,5.70
2022-11-29T14:11:00.377Z,5.15
2022-11-29T14:16:05.615Z,4.95
2022-11-29T14:21:08.566Z,5.60
2022-11-29T14:26:29.756Z,5.30
2022-11-29T14:31:51.622Z,5.32
2022-11-29T14:36:57.807Z,5.40
2022-11-29T14:42:07.775Z,5.22
2022-11-29T14:47:21.359Z,5.63
2022-11-29T14:52:29.095Z,5.53
2022-11-29T14:57:52.676Z,4.85
2022-11-29T15:02:59.967Z,5.70
2022-11-29T15:08:09.260Z,5.38
2022-11-29T15:13:14.159Z,5.00
2022-11-29T15:18:27.858Z,5.90
2022-11-29T15:23:40.865Z,5.28
2022-11-29T15:28:43.541Z,6.03
2022-11-29T15:33:49.073Z,7.85
2022-11-29T15:38:53.887Z,15.23
2022-11-29T15:43:59.318Z,20.75
2022-11-29T15:49:18.942Z,23.20
2022-11-29T15:54:27.426Z,25.02
2022-11-29T15:59:34.238Z,27.67
2022-11-29T16:04:45.080Z,27.83
2022-11-29T16:09:52.619Z,26.48
2022-11-29T16:14:57.219Z,27.27
2022-11-29T16:20:23.416Z,27.35
2022-11-29T16:25:27.032Z,29.00
2022-11-29T16:30:31.250Z,29.08
2022-11-29T16:35:36.257Z,29.45
2022-11-29T16:40:38.932Z,28.98
2022-11-29T16:45:42.145Z,28.13
2022-11-29T16:50:46.375Z,26.30
2022-11-29T16:55:49.025Z,27.52
2022-11-29T17:00:51.678Z,29.00
2022-11-29T17:05:56.189Z,26.20
2022-11-29T17:10:58.828Z,27.80
2022-11-29T17:16:01.479Z,26.50
2022-11-29T17:21:05.757Z,26.58
2022-11-29T17:26:08.564Z,26.45
2022-11-29T17:31:11.927Z,26.95
2022-11-29T17:36:17.758Z,27.02
2022-11-29T17:41:22.600Z,26.83
2022-11-29T17:46:26.950Z,25.42
2022-11-29T17:56:53.716Z,26.42
2022-11-29T18:01:56.633Z,24.88
2022-11-29T18:07:01.464Z,25.08
2022-11-29T18:12:04.391Z,25.75
2022-11-29T18:17:07.035Z,25.05
2022-11-29T18:22:11.123Z,23.48
2022-11-29T18:27:13.765Z,22.88
2022-11-29T18:32:16.468Z,21.85
2022-11-29T18:37:38.967Z,29.48
2022-11-29T18:42:43.087Z,36.30
2022-11-29T18:47:46.017Z,43.60
2022-11-29T18:52:51.460Z,51.03
2022-11-29T18:57:54.192Z,58.83
2022-11-29T19:02:57.380Z,62.63
2022-11-29T19:08:01.541Z,70.43
2022-11-29T19:13:04.436Z,76.13
2022-11-29T19:18:07.138Z,80.53
2022-11-29T19:23:11.159Z,81.93
2022-11-29T19:28:14.346Z,85.10
2022-11-29T19:33:17.229Z,83.38
2022-11-29T19:38:21.280Z,84.22
2022-11-29T19:43:24.124Z,83.63
2022-11-29T19:48:26.718Z,84.85
2022-11-29T19:53:30.940Z,81.05
2022-11-29T19:58:33.632Z,81.57
2022-11-29T20:03:36.559Z,82.93
2022-11-29T20:08:41.608Z,79.45
2022-11-29T20:13:45.728Z,78.10
2022-11-29T20:18:51.077Z,80.65
2022-11-29T20:23:57.712Z,75.22
2022-11-29T20:29:01.727Z,73.53
2022-11-29T20:34:04.949Z,75.30
2022-11-29T20:39:17.878Z,75.10
2022-11-29T20:44:24.869Z,72.25
2022-11-29T20:49:28.011Z,67.55
2022-11-29T20:54:32.027Z,67.20
2022-11-29T20:59:34.757Z,66.07
2022-11-29T21:04:37.449Z,64.40
2022-11-29T21:09:41.539Z,64.38
2022-11-29T21:14:44.974Z,61.38
2022-11-29T21:19:48.424Z,60.08
2022-11-29T21:24:59.078Z,59.78
2022-11-29T21:30:05.352Z,60.67
2022-11-29T21:35:08.858Z,58.13
2022-11-29T21:40:14.798Z,58.78
2022-11-29T21:45:17.809Z,55.97
2022-11-29T21:50:20.466Z,56.85
2022-11-29T21:55:31.584Z,53.67
2022-11-29T22:00:37.572Z,53.33
2022-11-29T22:05:40.447Z,50.50
2022-11-29T22:10:44.464Z,52.30
2022-11-29T22:15:47.250Z,51.60
2022-11-29T22:20:49.889Z,48.72
2022-11-29T22:25:53.891Z,49.53
2022-11-29T22:31:02.588Z,47.17
2022-11-29T22:36:06.176Z,46.45
2022-11-29T22:41:11.408Z,46.97
2022-11-29T22:46:16.359Z,44.00
2022-11-29T22:51:23.477Z,43.42
2022-11-29T22:56:29.623Z,42.40
2022-11-29T23:01:35.192Z,41.53
2022-11-29T23:06:39.669Z,41.60
2022-11-29T23:11:44.359Z,39.85
2022-11-29T23:16:47.027Z,38.97
2022-11-29T23:21:51.941Z,37.63
2022-11-29T23:26:55.963Z,38.13
2022-11-29T23:31:58.644Z,35.53
2022-11-29T23:37:01.319Z,34.90
2022-11-29T23:42:05.706Z,34.47
2022-11-29T23:47:08.388Z,33.58
2022-11-29T23:52:11.003Z,33.42
2022-11-29T23:57:14.993Z,32.00
